sensor_id;sensor_type;location;lat;lon;timestamp;pressure;altitude;pressure_sealevel;temperature;humidity
27864;BME280;15980;51.092;13.916;2022-07-10T00:04:35;99127.47;;;13.61;74.81
27864;BME280;15980;51.092;13.916;2022-07-10T00:09:38;99129.63;;;13.67;74.74
27864;BME280;15980;51.092;13.916;2022-07-10T00:14:42;99139.66;;;13.60;75.43
27864;BME280;15980;51.092;13.916;2022-07-10T00:19:46;99135.78;;;13.48;75.67
27864;BME280;15980;51.092;13.916;2022-07-10T00:24:49;99131.97;;;13.53;76.16
27864;BME280;15980;51.092;13.916;2022-07-10T00:29:53;99129.47;;;13.48;75.98
27864;BME280;15980;51.092;13.916;2022-07-10T00:34:57;99139.63;;;13.19;76.17
27864;BME280;15980;51.092;13.916;2022-07-10T00:40:00;99137.53;;;13.29;75.97
27864;BME280;15980;51.092;13.916;2022-07-10T00:45:04;99139.59;;;13.32;75.80
27864;BME280;15980;51.092;13.916;2022-07-10T00:50:09;99145.81;;;13.16;75.32
27864;BME280;15980;51.092;13.916;2022-07-10T00:55:14;99143.41;;;13.27;75.13
27864;BME280;15980;51.092;13.916;2022-07-10T01:00:17;99141.69;;;13.23;74.62
27864;BME280;15980;51.092;13.916;2022-07-10T01:05:22;99148.66;;;13.32;73.60
27864;BME280;15980;51.092;13.916;2022-07-10T01:10:25;99139.03;;;13.14;73.07
27864;BME280;15980;51.092;13.916;2022-07-10T01:15:28;99144.19;;;13.15;72.80
27864;BME280;15980;51.092;13.916;2022-07-10T01:20:33;99142.25;;;13.28;72.35
27864;BME280;15980;51.092;13.916;2022-07-10T01:25:38;99147.28;;;13.14;72.19
27864;BME280;15980;51.092;13.916;2022-07-10T01:30:41;99148.22;;;13.30;71.76
27864;BME280;15980;51.092;13.916;2022-07-10T01:35:44;99141.69;;;13.23;72.02
27864;BME280;15980;51.092;13.916;2022-07-10T01:40:49;99148.44;;;13.25;71.61
27864;BME280;15980;51.092;13.916;2022-07-10T01:52:14;99131.44;;;13.35;70.90
27864;BME280;15980;51.092;13.916;2022-07-10T01:57:19;99116.41;;;13.33;70.61
27864;BME280;15980;51.092;13.916;2022-07-10T02:02:22;99127.78;;;13.31;70.04
27864;BME280;15980;51.092;13.916;2022-07-10T02:07:25;99119.81;;;13.42;70.09
27864;BME280;15980;51.092;13.916;2022-07-10T02:12:29;99115.34;;;13.49;69.87
27864;BME280;15980;51.092;13.916;2022-07-10T02:17:32;99116.16;;;13.38;69.11
27864;BME280;15980;51.092;13.916;2022-07-10T02:22:35;99127.56;;;13.12;69.10
27864;BME280;15980;51.092;13.916;2022-07-10T02:27:40;99124.69;;;13.20;68.99
27864;BME280;15980;51.092;13.916;2022-07-10T02:32:43;99113.69;;;13.20;69.24
27864;BME280;15980;51.092;13.916;2022-07-10T02:37:46;99107.81;;;13.10;69.11
27864;BME280;15980;51.092;13.916;2022-07-10T02:42:51;99094.69;;;13.31;68.94
27864;BME280;15980;51.092;13.916;2022-07-10T02:47:54;99109.31;;;13.19;69.42
27864;BME280;15980;51.092;13.916;2022-07-10T02:52:57;99090.09;;;13.35;69.15
27864;BME280;15980;51.092;13.916;2022-07-10T02:58:02;99096.66;;;13.31;69.49
27864;BME280;15980;51.092;13.916;2022-07-10T03:03:05;99096.75;;;13.34;69.32
27864;BME280;15980;51.092;13.916;2022-07-10T03:08:08;99101.59;;;13.25;69.88
27864;BME280;15980;51.092;13.916;2022-07-10T03:13:12;99105.75;;;13.07;70.20
27864;BME280;15980;51.092;13.916;2022-07-10T03:18:15;99093.78;;;13.15;70.45
27864;BME280;15980;51.092;13.916;2022-07-10T03:23:19;99099.06;;;13.32;69.87
27864;BME280;15980;51.092;13.916;2022-07-10T03:28:23;99090.94;;;13.24;70.02
27864;BME280;15980;51.092;13.916;2022-07-10T03:33:26;99083.56;;;13.28;70.20
27864;BME280;15980;51.092;13.916;2022-07-10T03:38:30;99085.88;;;13.26;70.20
27864;BME280;15980;51.092;13.916;2022-07-10T03:43:34;99081.97;;;13.27;70.34
27864;BME280;15980;51.092;13.916;2022-07-10T03:48:37;99082.91;;;13.18;70.94
27864;BME280;15980;51.092;13.916;2022-07-10T03:53:40;99074.31;;;13.08;71.18
27864;BME280;15980;51.092;13.916;2022-07-10T03:58:45;99086.56;;;12.98;71.30
27864;BME280;15980;51.092;13.916;2022-07-10T04:03:48;99071.09;;;13.18;70.72
27864;BME280;15980;51.092;13.916;2022-07-10T04:08:51;99070.28;;;13.17;71.17
27864;BME280;15980;51.092;13.916;2022-07-10T04:13:55;99067.34;;;13.38;70.77
27864;BME280;15980;51.092;13.916;2022-07-10T04:18:59;99064.97;;;13.25;71.07
27864;BME280;15980;51.092;13.916;2022-07-10T04:24:02;99060.69;;;13.67;70.25
27864;BME280;15980;51.092;13.916;2022-07-10T04:29:08;99057.78;;;13.76;69.27
27864;BME280;15980;51.092;13.916;2022-07-10T04:34:11;99066.91;;;13.64;70.07
27864;BME280;15980;51.092;13.916;2022-07-10T04:39:15;99069.56;;;13.61;70.02
27864;BME280;15980;51.092;13.916;2022-07-10T04:44:20;99072.06;;;13.66;69.50
27864;BME280;15980;51.092;13.916;2022-07-10T04:49:23;99068.66;;;13.84;69.29
27864;BME280;15980;51.092;13.916;2022-07-10T04:54:26;99073.22;;;13.93;68.82
27864;BME280;15980;51.092;13.916;2022-07-10T04:59:31;99060.69;;;13.95;68.86
27864;BME280;15980;51.092;13.916;2022-07-10T05:04:34;99066.69;;;13.29;70.84
27864;BME280;15980;51.092;13.916;2022-07-10T05:09:37;99064.84;;;13.89;69.01
27864;BME280;15980;51.092;13.916;2022-07-10T05:14:41;99059.09;;;14.10;68.57
27864;BME280;15980;51.092;13.916;2022-07-10T05:19:44;99065.53;;;13.86;67.73
27864;BME280;15980;51.092;13.916;2022-07-10T05:24:47;99064.69;;;13.98;67.89
27864;BME280;15980;51.092;13.916;2022-07-10T05:29:52;99077.94;;;13.64;69.91
27864;BME280;15980;51.092;13.916;2022-07-10T05:34:57;99074.34;;;13.48;70.92
27864;BME280;15980;51.092;13.916;2022-07-10T05:40:00;99074.28;;;13.88;69.61
27864;BME280;15980;51.092;13.916;2022-07-10T05:45:05;99066.44;;;14.50;67.03
27864;BME280;15980;51.092;13.916;2022-07-10T05:50:09;99067.03;;;14.74;66.49
27864;BME280;15980;51.092;13.916;2022-07-10T05:55:12;99076.53;;;14.93;66.71
27864;BME280;15980;51.092;13.916;2022-07-10T06:00:17;99073.56;;;15.01;65.54
27864;BME280;15980;51.092;13.916;2022-07-10T06:05:20;99074.41;;;14.86;65.62
27864;BME280;15980;51.092;13.916;2022-07-10T06:10:23;99070.84;;;15.21;65.44
27864;BME280;15980;51.092;13.916;2022-07-10T06:15:27;99071.59;;;14.51;66.48
27864;BME280;15980;51.092;13.916;2022-07-10T06:20:30;99076.03;;;14.71;66.87
27864;BME280;15980;51.092;13.916;2022-07-10T06:25:33;99078.63;;;14.49;70.68
27864;BME280;15980;51.092;13.916;2022-07-10T06:30:38;99072.03;;;14.37;72.31
27864;BME280;15980;51.092;13.916;2022-07-10T06:35:41;99080.25;;;14.50;70.79
27864;BME280;15980;51.092;13.916;2022-07-10T06:40:45;99076.56;;;15.12;68.72
27864;BME280;15980;51.092;13.916;2022-07-10T06:45:49;99061.56;;;15.29;68.14
27864;BME280;15980;51.092;13.916;2022-07-10T06:50:53;99046.66;;;16.14;65.44
27864;BME280;15980;51.092;13.916;2022-07-10T06:55:56;99062.13;;;15.38;65.78
27864;BME280;15980;51.092;13.916;2022-07-10T07:01:00;99066.97;;;15.60;64.41
27864;BME280;15980;51.092;13.916;2022-07-10T07:06:04;99068.25;;;15.28;65.06
27864;BME280;15980;51.092;13.916;2022-07-10T07:11:07;99074.13;;;15.61;64.53
27864;BME280;15980;51.092;13.916;2022-07-10T07:16:12;99084.75;;;15.44;64.10
27864;BME280;15980;51.092;13.916;2022-07-10T07:21:19;99068.75;;;15.53;64.82
27864;BME280;15980;51.092;13.916;2022-07-10T07:26:42;99064.38;;;16.32;64.51
27864;BME280;15980;51.092;13.916;2022-07-10T07:31:46;99067.31;;;16.20;63.89
27864;BME280;15980;51.092;13.916;2022-07-10T07:36:50;99058.94;;;16.40;62.59
27864;BME280;15980;51.092;13.916;2022-07-10T07:41:53;99067.81;;;15.84;63.41
27864;BME280;15980;51.092;13.916;2022-07-10T07:46:57;99060.59;;;15.98;64.83
27864;BME280;15980;51.092;13.916;2022-07-10T07:52:00;99075.16;;;15.57;63.68
27864;BME280;15980;51.092;13.916;2022-07-10T07:57:04;99058.69;;;16.02;64.11
27864;BME280;15980;51.092;13.916;2022-07-10T08:02:09;99086.06;;;15.65;61.33
27864;BME280;15980;51.092;13.916;2022-07-10T08:07:12;99061.66;;;16.36;59.39
27864;BME280;15980;51.092;13.916;2022-07-10T08:12:15;99077.94;;;16.87;58.41
27864;BME280;15980;51.092;13.916;2022-07-10T08:17:19;99054.13;;;17.39;57.05
27864;BME280;15980;51.092;13.916;2022-07-10T08:22:23;99075.03;;;17.03;55.99
27864;BME280;15980;51.092;13.916;2022-07-10T08:27:26;99072.88;;;16.66;59.06
27864;BME280;15980;51.092;13.916;2022-07-10T08:38:52;99056.81;;;16.52;59.73
27864;BME280;15980;51.092;13.916;2022-07-10T08:43:57;99049.59;;;16.71;58.29
27864;BME280;15980;51.092;13.916;2022-07-10T08:49:02;99059.31;;;16.61;57.68
27864;BME280;15980;51.092;13.916;2022-07-10T08:54:09;99056.50;;;17.10;58.63
27864;BME280;15980;51.092;13.916;2022-07-10T08:59:14;99060.31;;;16.49;58.88
27864;BME280;15980;51.092;13.916;2022-07-10T09:04:19;99067.34;;;16.66;58.86
27864;BME280;15980;51.092;13.916;2022-07-10T09:09:24;99071.13;;;16.12;59.85
27864;BME280;15980;51.092;13.916;2022-07-10T09:14:27;99071.22;;;15.96;61.33
27864;BME280;15980;51.092;13.916;2022-07-10T09:19:35;99088.88;;;15.69;62.11
27864;BME280;15980;51.092;13.916;2022-07-10T09:24:40;99075.19;;;15.76;62.34
27864;BME280;15980;51.092;13.916;2022-07-10T09:29:48;99079.97;;;15.98;61.71
27864;BME280;15980;51.092;13.916;2022-07-10T09:34:53;99079.66;;;16.03;60.64
27864;BME280;15980;51.092;13.916;2022-07-10T09:40:12;99074.78;;;16.88;58.64
27864;BME280;15980;51.092;13.916;2022-07-10T09:45:20;99072.81;;;17.15;56.87
27864;BME280;15980;51.092;13.916;2022-07-10T09:50:25;99062.44;;;16.82;57.51
27864;BME280;15980;51.092;13.916;2022-07-10T09:55:33;99058.88;;;16.36;56.92
27864;BME280;15980;51.092;13.916;2022-07-10T10:00:38;99072.22;;;15.65;57.97
27864;BME280;15980;51.092;13.916;2022-07-10T10:05:43;99073.66;;;15.79;57.44
27864;BME280;15980;51.092;13.916;2022-07-10T10:10:49;99066.78;;;16.11;55.62
27864;BME280;15980;51.092;13.916;2022-07-10T10:15:54;99062.53;;;17.76;53.40
27864;BME280;15980;51.092;13.916;2022-07-10T10:20:57;99061.66;;;18.46;49.63
27864;BME280;15980;51.092;13.916;2022-07-10T10:26:02;99072.75;;;17.38;48.36
27864;BME280;15980;51.092;13.916;2022-07-10T10:31:08;99075.22;;;16.90;48.33
27864;BME280;15980;51.092;13.916;2022-07-10T10:36:14;99074.38;;;16.41;51.29
27864;BME280;15980;51.092;13.916;2022-07-10T10:41:30;99071.88;;;16.32;51.49
27864;BME280;15980;51.092;13.916;2022-07-10T10:46:54;99068.53;;;16.46;52.85
27864;BME280;15980;51.092;13.916;2022-07-10T10:51:59;99075.81;;;17.03;53.03
27864;BME280;15980;51.092;13.916;2022-07-10T10:57:13;99078.00;;;17.17;51.58
27864;BME280;15980;51.092;13.916;2022-07-10T11:02:24;99080.75;;;17.17;51.83
27864;BME280;15980;51.092;13.916;2022-07-10T11:07:51;99064.88;;;17.14;51.84
27864;BME280;15980;51.092;13.916;2022-07-10T11:12:59;99084.31;;;16.64;53.78
27864;BME280;15980;51.092;13.916;2022-07-10T11:18:04;99088.72;;;16.23;55.93
27864;BME280;15980;51.092;13.916;2022-07-10T11:23:38;99101.53;;;15.89;57.05
27864;BME280;15980;51.092;13.916;2022-07-10T11:28:50;99092.53;;;16.38;56.58
27864;BME280;15980;51.092;13.916;2022-07-10T11:33:54;99091.38;;;17.38;53.20
27864;BME280;15980;51.092;13.916;2022-07-10T11:38:59;99092.69;;;16.68;53.30
27864;BME280;15980;51.092;13.916;2022-07-10T11:44:04;99082.13;;;17.30;51.11
27864;BME280;15980;51.092;13.916;2022-07-10T11:49:07;99077.06;;;18.36;49.27
27864;BME280;15980;51.092;13.916;2022-07-10T11:54:12;99081.28;;;19.19;46.69
27864;BME280;15980;51.092;13.916;2022-07-10T11:59:23;99064.56;;;19.95;46.54
27864;BME280;15980;51.092;13.916;2022-07-10T12:04:29;99066.59;;;20.16;46.08
27864;BME280;15980;51.092;13.916;2022-07-10T12:09:33;99069.81;;;18.65;47.77
27864;BME280;15980;51.092;13.916;2022-07-10T12:14:41;99082.66;;;17.39;50.13
27864;BME280;15980;51.092;13.916;2022-07-10T12:19:45;99083.59;;;16.68;52.05
27864;BME280;15980;51.092;13.916;2022-07-10T12:24:48;99103.03;;;17.24;51.58
27864;BME280;15980;51.092;13.916;2022-07-10T12:30:01;99094.78;;;16.75;53.37
27864;BME280;15980;51.092;13.916;2022-07-10T12:35:05;99092.31;;;16.92;53.77
27864;BME280;15980;51.092;13.916;2022-07-10T12:40:32;99112.63;;;17.30;52.87
27864;BME280;15980;51.092;13.916;2022-07-10T12:45:37;99115.97;;;17.39;52.49
27864;BME280;15980;51.092;13.916;2022-07-10T12:50:40;99110.69;;;17.61;52.03
27864;BME280;15980;51.092;13.916;2022-07-10T12:55:44;99097.56;;;18.21;50.98
27864;BME280;15980;51.092;13.916;2022-07-10T13:00:49;99107.63;;;18.36;50.06
27864;BME280;15980;51.092;13.916;2022-07-10T13:05:53;99102.13;;;18.43;49.29
27864;BME280;15980;51.092;13.916;2022-07-10T13:10:58;99108.72;;;18.65;46.30
27864;BME280;15980;51.092;13.916;2022-07-10T13:16:03;99107.22;;;18.78;48.05
27864;BME280;15980;51.092;13.916;2022-07-10T13:21:06;99096.88;;;18.75;47.16
27864;BME280;15980;51.092;13.916;2022-07-10T13:26:09;99099.84;;;19.66;45.31
27864;BME280;15980;51.092;13.916;2022-07-10T13:31:13;99094.16;;;19.48;45.72
27864;BME280;15980;51.092;13.916;2022-07-10T13:36:16;99092.03;;;19.20;47.11
27864;BME280;15980;51.092;13.916;2022-07-10T13:41:20;99084.00;;;19.81;46.08
27864;BME280;15980;51.092;13.916;2022-07-10T13:46:24;99070.25;;;19.40;46.67
27864;BME280;15980;51.092;13.916;2022-07-10T13:51:27;99070.75;;;18.43;47.67
27864;BME280;15980;51.092;13.916;2022-07-10T13:56:30;99076.66;;;18.38;48.61
27864;BME280;15980;51.092;13.916;2022-07-10T14:01:35;99070.84;;;18.53;47.90
27864;BME280;15980;51.092;13.916;2022-07-10T14:06:38;99084.16;;;18.74;47.59
27864;BME280;15980;51.092;13.916;2022-07-10T14:11:41;99081.88;;;18.91;45.34
27864;BME280;15980;51.092;13.916;2022-07-10T14:16:47;99079.41;;;18.75;47.42
27864;BME280;15980;51.092;13.916;2022-07-10T14:21:51;99072.34;;;18.44;48.19
27864;BME280;15980;51.092;13.916;2022-07-10T14:26:54;99082.06;;;18.64;47.90
27864;BME280;15980;51.092;13.916;2022-07-10T14:31:58;99079.09;;;18.91;46.87
27864;BME280;15980;51.092;13.916;2022-07-10T14:37:02;99077.84;;;18.77;47.38
27864;BME280;15980;51.092;13.916;2022-07-10T14:42:05;99070.81;;;18.98;46.64
27864;BME280;15980;51.092;13.916;2022-07-10T14:47:09;99078.63;;;18.78;46.07
27864;BME280;15980;51.092;13.916;2022-07-10T14:52:12;99079.72;;;19.25;46.09
27864;BME280;15980;51.092;13.916;2022-07-10T14:57:18;99073.59;;;18.98;46.74
27864;BME280;15980;51.092;13.916;2022-07-10T15:02:22;99078.66;;;18.81;46.52
27864;BME280;15980;51.092;13.916;2022-07-10T15:07:25;99069.13;;;18.82;46.15
27864;BME280;15980;51.092;13.916;2022-07-10T15:12:28;99063.81;;;19.22;46.07
27864;BME280;15980;51.092;13.916;2022-07-10T15:17:34;99058.34;;;19.43;45.97
27864;BME280;15980;51.092;13.916;2022-07-10T15:22:38;99054.50;;;19.58;45.04
27864;BME280;15980;51.092;13.916;2022-07-10T15:27:41;99050.75;;;19.29;45.74
27864;BME280;15980;51.092;13.916;2022-07-10T15:32:45;99054.91;;;19.60;45.10
27864;BME280;15980;51.092;13.916;2022-07-10T15:37:48;99048.94;;;19.58;44.97
27864;BME280;15980;51.092;13.916;2022-07-10T15:42:53;99041.06;;;19.92;44.28
27864;BME280;15980;51.092;13.916;2022-07-10T15:47:57;99047.41;;;19.93;44.38
27864;BME280;15980;51.092;13.916;2022-07-10T15:53:00;99047.22;;;19.46;44.91
27864;BME280;15980;51.092;13.916;2022-07-10T15:58:03;99034.63;;;19.63;44.28
27864;BME280;15980;51.092;13.916;2022-07-10T16:03:08;99031.97;;;19.12;44.60
27864;BME280;15980;51.092;13.916;2022-07-10T16:08:11;99027.28;;;19.30;43.70
27864;BME280;15980;51.092;13.916;2022-07-10T16:13:15;99025.38;;;19.45;44.48
27864;BME280;15980;51.092;13.916;2022-07-10T16:18:20;99032.47;;;19.28;44.53
27864;BME280;15980;51.092;13.916;2022-07-10T16:23:23;99025.22;;;19.09;44.92
27864;BME280;15980;51.092;13.916;2022-07-10T16:28:26;99023.28;;;19.24;44.81
27864;BME280;15980;51.092;13.916;2022-07-10T16:33:31;99021.78;;;19.41;44.85
27864;BME280;15980;51.092;13.916;2022-07-10T16:38:34;99021.78;;;19.44;45.11
27864;BME280;15980;51.092;13.916;2022-07-10T16:43:37;99022.28;;;19.54;45.38
27864;BME280;15980;51.092;13.916;2022-07-10T16:48:42;99016.31;;;19.59;45.53
27864;BME280;15980;51.092;13.916;2022-07-10T16:53:45;99022.16;;;19.39;45.45
27864;BME280;15980;51.092;13.916;2022-07-10T16:59:06;99016.19;;;19.37;45.68
27864;BME280;15980;51.092;13.916;2022-07-10T17:04:11;99025.88;;;19.61;45.36
27864;BME280;15980;51.092;13.916;2022-07-10T17:09:14;99017.72;;;19.21;45.69
27864;BME280;15980;51.092;13.916;2022-07-10T17:14:17;99019.22;;;19.07;45.82
27864;BME280;15980;51.092;13.916;2022-07-10T17:19:22;99011.97;;;18.89;46.45
27864;BME280;15980;51.092;13.916;2022-07-10T17:24:26;99009.53;;;18.76;47.23
27864;BME280;15980;51.092;13.916;2022-07-10T17:29:29;99005.91;;;18.72;47.57
27864;BME280;15980;51.092;13.916;2022-07-10T17:34:34;99000.97;;;18.55;47.83
27864;BME280;15980;51.092;13.916;2022-07-10T17:39:37;99006.53;;;18.55;47.92
27864;BME280;15980;51.092;13.916;2022-07-10T17:44:40;99002.81;;;18.85;48.28
27864;BME280;15980;51.092;13.916;2022-07-10T17:49:45;99001.84;;;19.28;47.04
27864;BME280;15980;51.092;13.916;2022-07-10T17:54:48;99003.47;;;19.36;46.63
27864;BME280;15980;51.092;13.916;2022-07-10T17:59:52;99005.56;;;18.81;46.82
27864;BME280;15980;51.092;13.916;2022-07-10T18:04:56;99012.47;;;18.50;47.32
27864;BME280;15980;51.092;13.916;2022-07-10T18:09:59;99013.84;;;18.23;47.96
27864;BME280;15980;51.092;13.916;2022-07-10T18:15:03;99011.88;;;17.82;48.39
27864;BME280;15980;51.092;13.916;2022-07-10T18:20:09;99009.22;;;17.97;48.08
27864;BME280;15980;51.092;13.916;2022-07-10T18:25:12;99015.13;;;17.92;48.49
27864;BME280;15980;51.092;13.916;2022-07-10T18:30:15;99007.88;;;17.80;48.86
27864;BME280;15980;51.092;13.916;2022-07-10T18:35:19;99012.56;;;17.76;49.32
27864;BME280;15980;51.092;13.916;2022-07-10T18:40:22;99010.22;;;17.78;49.25
27864;BME280;15980;51.092;13.916;2022-07-10T18:45:25;99017.53;;;17.59;49.28
27864;BME280;15980;51.092;13.916;2022-07-10T18:50:30;99015.09;;;17.54;49.43
27864;BME280;15980;51.092;13.916;2022-07-10T18:55:34;99016.94;;;17.43;49.62
27864;BME280;15980;51.092;13.916;2022-07-10T19:00:37;99025.88;;;17.30;50.27
27864;BME280;15980;51.092;13.916;2022-07-10T19:05:41;99013.94;;;17.25;49.93
27864;BME280;15980;51.092;13.916;2022-07-10T19:10:44;99009.50;;;17.21;50.70
27864;BME280;15980;51.092;13.916;2022-07-10T19:15:47;99020.59;;;17.21;50.39
27864;BME280;15980;51.092;13.916;2022-07-10T19:20:52;99026.09;;;17.17;50.79
27864;BME280;15980;51.092;13.916;2022-07-10T19:25:55;99035.97;;;17.15;51.14
27864;BME280;15980;51.092;13.916;2022-07-10T19:30:58;99042.69;;;17.14;51.41
27864;BME280;15980;51.092;13.916;2022-07-10T19:36:04;99046.59;;;17.09;51.76
27864;BME280;15980;51.092;13.916;2022-07-10T19:41:07;99050.44;;;17.01;52.03
27864;BME280;15980;51.092;13.916;2022-07-10T19:46:11;99053.94;;;16.94;52.56
27864;BME280;15980;51.092;13.916;2022-07-10T19:51:15;99062.09;;;16.87;52.78
27864;BME280;15980;51.092;13.916;2022-07-10T19:56:19;99056.47;;;16.80;53.51
27864;BME280;15980;51.092;13.916;2022-07-10T20:01:22;99061.56;;;16.78;53.42
27864;BME280;15980;51.092;13.916;2022-07-10T20:06:27;99063.50;;;16.74;54.30
27864;BME280;15980;51.092;13.916;2022-07-10T20:11:30;99060.16;;;16.65;54.28
27864;BME280;15980;51.092;13.916;2022-07-10T20:16:33;99060.47;;;16.60;54.76
27864;BME280;15980;51.092;13.916;2022-07-10T20:21:38;99056.06;;;16.55;55.04
27864;BME280;15980;51.092;13.916;2022-07-10T20:26:42;99061.50;;;16.48;55.21
27864;BME280;15980;51.092;13.916;2022-07-10T20:31:45;99066.94;;;16.45;56.15
27864;BME280;15980;51.092;13.916;2022-07-10T20:36:49;99055.38;;;16.39;56.02
27864;BME280;15980;51.092;13.916;2022-07-10T20:42:10;99064.97;;;16.45;56.16
27864;BME280;15980;51.092;13.916;2022-07-10T20:47:13;99070.38;;;16.38;56.14
27864;BME280;15980;51.092;13.916;2022-07-10T20:52:18;99077.09;;;16.37;55.47
27864;BME280;15980;51.092;13.916;2022-07-10T20:57:23;99083.31;;;16.30;55.95
27864;BME280;15980;51.092;13.916;2022-07-10T21:02:26;99081.53;;;16.42;55.56
27864;BME280;15980;51.092;13.916;2022-07-10T21:07:30;99075.19;;;16.41;56.12
27864;BME280;15980;51.092;13.916;2022-07-10T21:12:37;99083.50;;;16.41;55.99
27864;BME280;15980;51.092;13.916;2022-07-10T21:17:42;99083.66;;;16.48;56.22
27864;BME280;15980;51.092;13.916;2022-07-10T21:22:47;99085.47;;;16.41;56.55
27864;BME280;15980;51.092;13.916;2022-07-10T21:27:50;99085.91;;;16.43;57.00
27864;BME280;15980;51.092;13.916;2022-07-10T21:32:53;99092.19;;;16.40;57.06
27864;BME280;15980;51.092;13.916;2022-07-10T21:37:58;99089.47;;;16.20;58.06
27864;BME280;15980;51.092;13.916;2022-07-10T21:43:01;99095.25;;;16.34;57.60
27864;BME280;15980;51.092;13.916;2022-07-10T21:48:05;99092.06;;;16.32;57.76
27864;BME280;15980;51.092;13.916;2022-07-10T21:53:09;99086.34;;;16.22;58.17
27864;BME280;15980;51.092;13.916;2022-07-10T21:58:13;99088.66;;;16.20;58.34
27864;BME280;15980;51.092;13.916;2022-07-10T22:03:16;99088.72;;;16.23;58.70
27864;BME280;15980;51.092;13.916;2022-07-10T22:08:20;99097.47;;;16.25;58.54
27864;BME280;15980;51.092;13.916;2022-07-10T22:13:23;99095.38;;;16.19;58.91
27864;BME280;15980;51.092;13.916;2022-07-10T22:18:26;99101.97;;;16.11;59.54
27864;BME280;15980;51.092;13.916;2022-07-10T22:23:31;99108.72;;;15.94;59.92
27864;BME280;15980;51.092;13.916;2022-07-10T22:28:34;99108.31;;;15.92;60.38
27864;BME280;15980;51.092;13.916;2022-07-10T22:33:37;99109.22;;;15.99;60.11
27864;BME280;15980;51.092;13.916;2022-07-10T22:38:42;99109.06;;;15.69;61.41
27864;BME280;15980;51.092;13.916;2022-07-10T22:43:45;99108.63;;;15.67;61.69
27864;BME280;15980;51.092;13.916;2022-07-10T22:48:49;99112.50;;;15.47;62.36
27864;BME280;15980;51.092;13.916;2022-07-10T22:53:53;99111.22;;;15.60;62.04
27864;BME280;15980;51.092;13.916;2022-07-10T22:58:57;99105.78;;;15.64;62.38
27864;BME280;15980;51.092;13.916;2022-07-10T23:04:00;99114.88;;;15.64;62.45
27864;BME280;15980;51.092;13.916;2022-07-10T23:09:05;99107.88;;;15.70;62.46
27864;BME280;15980;51.092;13.916;2022-07-10T23:14:08;99109.78;;;15.66;62.56
27864;BME280;15980;51.092;13.916;2022-07-10T23:19:11;99110.06;;;15.61;62.90
27864;BME280;15980;51.092;13.916;2022-07-10T23:24:16;99102.75;;;15.53;63.30
27864;BME280;15980;51.092;13.916;2022-07-10T23:29:19;99100.25;;;15.64;63.29
27864;BME280;15980;51.092;13.916;2022-07-10T23:34:22;99104.44;;;15.58;63.60
27864;BME280;15980;51.092;13.916;2022-07-10T23:39:32;99106.03;;;15.59;63.63
27864;BME280;15980;51.092;13.916;2022-07-10T23:44:36;99098.81;;;15.54;63.92
27864;BME280;15980;51.092;13.916;2022-07-10T23:49:39;99100.78;;;15.54;64.19
27864;BME280;15980;51.092;13.916;2022-07-10T23:55:01;99097.06;;;15.46;64.68
